createdAt,value
2022-12-04T00:04:08.452Z,52.53
2022-12-04T00:06:36.063Z,52.42
2022-12-04T00:09:04.061Z,53.38
2022-12-04T00:11:36.301Z,47.22
2022-12-04T00:14:07.253Z,45.72
2022-12-04T00:16:35.669Z,48.20
2022-12-04T00:19:04.852Z,48.33
2022-12-04T00:21:33.578Z,54.28
2022-12-04T00:24:04.550Z,53.70
2022-12-04T00:26:32.085Z,48.83
2022-12-04T00:28:59.551Z,55.65
2022-12-04T00:31:32.170Z,52.53
2022-12-04T00:34:08.056Z,50.80
2022-12-04T00:36:36.997Z,55.88
2022-12-04T00:39:05.220Z,50.40
2022-12-04T00:41:35.122Z,53.80
2022-12-04T00:44:03.398Z,47.70
2022-12-04T00:46:37.329Z,47.28
2022-12-04T00:49:04.933Z,53.33
2022-12-04T00:51:35.255Z,48.70
2022-12-04T00:54:05.370Z,51.47
2022-12-04T00:56:35.817Z,45.28
2022-12-04T00:59:04.553Z,45.10
2022-12-04T01:01:33.001Z,45.60
2022-12-04T01:04:00.201Z,47.97
2022-12-04T01:06:32.400Z,44.88
2022-12-04T01:09:01.496Z,45.47
2022-12-04T01:11:30.176Z,44.05
2022-12-04T01:13:58.367Z,48.42
2022-12-04T01:16:29.777Z,43.75
2022-12-04T01:18:57.399Z,46.92
2022-12-04T01:21:25.013Z,43.47
2022-12-04T01:23:56.185Z,48.83
2022-12-04T01:26:23.525Z,45.72
2022-12-04T01:28:50.951Z,50.15
2022-12-04T01:31:21.875Z,47.92
2022-12-04T01:33:50.269Z,52.58
2022-12-04T01:36:23.454Z,50.58
2022-12-04T01:38:53.396Z,49.28
2022-12-04T01:41:23.863Z,46.55
2022-12-04T01:44:11.553Z,41.47
2022-12-04T01:46:39.864Z,51.28
2022-12-04T01:49:16.110Z,45.80
2022-12-04T01:51:48.574Z,48.47
2022-12-04T01:54:22.877Z,49.05
2022-12-04T01:56:54.447Z,48.40
2022-12-04T01:59:26.827Z,38.80
2022-12-04T02:02:04.113Z,50.13
2022-12-04T02:04:36.540Z,48.38
2022-12-04T02:07:06.794Z,47.50
2022-12-04T02:09:36.173Z,45.90
2022-12-04T02:12:34.836Z,50.60
2022-12-04T02:15:22.218Z,48.05
2022-12-04T02:18:02.722Z,49.95
2022-12-04T02:20:53.787Z,51.53
2022-12-04T02:23:47.585Z,49.40
2022-12-04T02:26:44.397Z,52.85
2022-12-04T02:29:28.469Z,53.60
2022-12-04T02:32:05.130Z,51.25
2022-12-04T02:35:06.905Z,52.22
2022-12-04T02:37:38.895Z,52.13
2022-12-04T02:40:23.374Z,52.72
2022-12-04T02:43:05.247Z,52.35
2022-12-04T02:45:46.757Z,57.80
2022-12-04T02:48:19.283Z,54.08
2022-12-04T02:50:51.072Z,68.15
2022-12-04T02:53:22.428Z,57.65
2022-12-04T02:56:01.637Z,59.83
2022-12-04T02:58:53.088Z,62.88
2022-12-04T03:01:27.293Z,62.28
2022-12-04T03:04:01.362Z,56.70
2022-12-04T03:06:35.213Z,62.90
2022-12-04T03:09:14.211Z,51.97
2022-12-04T03:11:49.564Z,54.13
2022-12-04T03:14:25.328Z,54.03
2022-12-04T03:16:55.997Z,55.38
2022-12-04T03:19:28.351Z,52.80
2022-12-04T03:22:00.305Z,53.03
2022-12-04T03:24:38.244Z,55.22
2022-12-04T03:27:29.921Z,55.03
2022-12-04T03:30:07.177Z,53.80
2022-12-04T03:32:52.885Z,51.33
2022-12-04T03:35:37.468Z,59.42
2022-12-04T03:38:16.452Z,53.38
2022-12-04T03:40:57.924Z,54.42
2022-12-04T03:43:34.786Z,53.72
2022-12-04T03:46:11.589Z,48.00
2022-12-04T03:48:48.494Z,56.67
2022-12-04T03:51:27.233Z,47.85
2022-12-04T03:54:09.892Z,49.97
2022-12-04T03:56:43.338Z,52.50
2022-12-04T03:59:32.180Z,49.72
2022-12-04T04:02:04.704Z,57.63
2022-12-04T04:04:37.558Z,49.95
2022-12-04T04:07:28.053Z,56.15
2022-12-04T04:10:06.778Z,54.00
2022-12-04T04:12:40.539Z,53.33
2022-12-04T04:15:34.421Z,52.95
2022-12-04T04:18:21.336Z,56.35
2022-12-04T04:21:17.905Z,51.55
2022-12-04T04:24:08.915Z,65.15
2022-12-04T04:26:42.230Z,59.42
2022-12-04T04:29:10.575Z,56.67
2022-12-04T04:32:00.886Z,53.55
2022-12-04T04:34:46.751Z,65.55
2022-12-04T04:37:35.243Z,49.95
2022-12-04T04:40:07.767Z,54.05
2022-12-04T04:42:51.787Z,59.78
2022-12-04T04:45:35.995Z,59.88
2022-12-04T04:48:09.837Z,60.55
2022-12-04T04:50:41.967Z,58.95
2022-12-04T04:53:14.912Z,60.20
2022-12-04T04:58:17.411Z,57.60
2022-12-04T05:00:52.099Z,60.72
2022-12-04T05:03:20.358Z,59.60
2022-12-04T05:05:47.848Z,58.45
2022-12-04T05:08:15.683Z,56.50
2022-12-04T05:10:49.737Z,57.53
2022-12-04T05:13:18.582Z,60.42
2022-12-04T05:15:56.937Z,60.75
2022-12-04T05:18:24.414Z,53.03
2022-12-04T05:20:52.115Z,60.13
2022-12-04T05:23:19.512Z,61.53
2022-12-04T05:25:47.025Z,59.42
2022-12-04T05:28:18.034Z,63.05
2022-12-04T05:30:45.521Z,60.45
2022-12-04T05:33:13.138Z,53.45
2022-12-04T05:35:41.539Z,52.40
2022-12-04T05:38:09.138Z,64.53
2022-12-04T05:40:37.048Z,58.30
2022-12-04T05:43:05.556Z,62.67
2022-12-04T05:45:33.002Z,58.65
2022-12-04T05:48:00.314Z,57.55
2022-12-04T05:50:49.370Z,55.80
2022-12-04T05:53:17.479Z,51.78
2022-12-04T05:55:45.094Z,61.60
2022-12-04T05:58:16.249Z,61.28
2022-12-04T06:00:43.274Z,55.80
2022-12-04T06:03:10.634Z,56.05
2022-12-04T06:05:38.010Z,51.22
2022-12-04T06:08:05.207Z,53.80
2022-12-04T06:10:32.437Z,56.60
2022-12-04T06:12:59.795Z,66.93
2022-12-04T06:15:27.298Z,62.58
2022-12-04T06:17:55.317Z,68.05
2022-12-04T06:20:23.319Z,66.75
2022-12-04T06:22:50.802Z,56.65
2022-12-04T06:25:22.474Z,65.60
2022-12-04T06:27:51.565Z,54.77
2022-12-04T06:30:21.884Z,68.45
2022-12-04T06:32:49.410Z,66.50
2022-12-04T06:35:17.043Z,54.20
2022-12-04T06:37:44.375Z,61.67
2022-12-04T06:40:12.409Z,59.67
2022-12-04T06:42:39.849Z,62.00
2022-12-04T06:45:08.156Z,61.42
2022-12-04T06:47:36.707Z,61.50
2022-12-04T06:50:04.986Z,66.82
2022-12-04T06:52:35.593Z,62.50
2022-12-04T06:55:03.126Z,54.88
2022-12-04T06:57:31.234Z,65.70
2022-12-04T06:59:59.134Z,63.45
2022-12-04T07:02:26.776Z,68.68
2022-12-04T07:04:58.578Z,67.10
2022-12-04T07:07:25.852Z,64.95
2022-12-04T07:09:53.765Z,70.55
2022-12-04T07:12:25.656Z,72.50
2022-12-04T07:14:55.139Z,79.25
2022-12-04T07:17:25.612Z,83.82
2022-12-04T07:19:54.993Z,76.10
2022-12-04T07:22:23.135Z,68.93
2022-12-04T07:24:50.507Z,72.07
2022-12-04T07:27:20.593Z,59.90
2022-12-04T07:29:47.972Z,79.55
2022-12-04T07:32:15.773Z,73.05
2022-12-04T07:34:43.157Z,77.80
2022-12-04T07:37:11.339Z,62.88
2022-12-04T07:39:46.060Z,68.93
2022-12-04T07:45:07.405Z,65.07
2022-12-04T07:47:38.385Z,63.63
2022-12-04T07:50:07.603Z,60.17
2022-12-04T07:52:48.040Z,67.55
2022-12-04T07:55:20.164Z,63.53
2022-12-04T07:57:52.525Z,64.78
2022-12-04T11:01:28.633Z,32.55
2022-12-04T11:28:39.737Z,30.15
2022-12-04T11:39:21.910Z,28.77
2022-12-04T11:53:36.447Z,26.97
2022-12-04T12:00:31.428Z,32.55
2022-12-04T12:10:45.147Z,27.08
2022-12-04T12:34:12.987Z,28.45
2022-12-04T12:37:41.775Z,31.25
2022-12-04T12:40:47.818Z,35.45
2022-12-04T12:47:36.842Z,32.38
2022-12-04T13:01:26.208Z,30.15
2022-12-04T13:04:29.744Z,27.92
2022-12-04T13:28:29.601Z,36.90
2022-12-04T14:52:31.915Z,30.55
2022-12-04T15:19:35.950Z,33.85
2022-12-04T15:22:12.576Z,41.00
2022-12-04T15:24:40.339Z,37.95
2022-12-04T15:27:08.391Z,38.58
2022-12-04T15:29:40.602Z,39.80
2022-12-04T15:32:12.525Z,38.60
2022-12-04T15:34:59.714Z,35.15
2022-12-04T15:37:33.974Z,37.55
2022-12-04T15:40:08.261Z,39.78
2022-12-04T15:49:29.537Z,39.92
2022-12-04T15:52:37.397Z,39.72
2022-12-04T15:55:10.094Z,36.45
2022-12-04T15:57:43.975Z,45.38
2022-12-04T16:00:39.407Z,54.70
2022-12-04T16:10:05.274Z,48.80
2022-12-04T16:15:51.704Z,43.25
2022-12-04T16:18:25.720Z,42.60
2022-12-04T16:20:56.293Z,42.17
2022-12-04T16:23:29.679Z,48.65
2022-12-04T16:25:59.105Z,43.17
2022-12-04T16:28:29.484Z,40.50
2022-12-04T16:30:59.235Z,42.95
2022-12-04T16:33:26.998Z,54.53
2022-12-04T16:35:58.608Z,53.28
2022-12-04T16:41:52.048Z,49.00
2022-12-04T16:44:28.534Z,46.30
2022-12-04T16:47:04.669Z,49.28
2022-12-04T16:49:32.126Z,46.95
2022-12-04T16:52:01.217Z,49.88
2022-12-04T16:54:32.835Z,50.35
2022-12-04T16:57:01.708Z,47.90
2022-12-04T16:59:29.647Z,54.75
2022-12-04T17:02:21.425Z,47.40
2022-12-04T17:04:57.028Z,47.50
2022-12-04T17:07:28.122Z,48.17
2022-12-04T17:09:58.585Z,50.60
2022-12-04T17:12:49.132Z,47.30
2022-12-04T17:15:16.258Z,48.25
2022-12-04T17:18:13.906Z,46.03
2022-12-04T17:20:44.622Z,46.45
2022-12-04T17:23:13.515Z,45.53
2022-12-04T17:25:41.895Z,42.78
2022-12-04T17:28:09.508Z,46.95
2022-12-04T17:30:36.986Z,50.20
2022-12-04T17:33:05.408Z,46.95
2022-12-04T17:35:32.879Z,45.25
2022-12-04T17:38:05.662Z,48.17
2022-12-04T17:40:33.870Z,42.63
2022-12-04T17:43:01.603Z,48.25
2022-12-04T17:45:28.782Z,47.92
2022-12-04T17:47:56.275Z,46.67
2022-12-04T17:50:23.425Z,46.72
2022-12-04T17:52:50.800Z,51.70
2022-12-04T17:55:18.503Z,53.72
2022-12-04T17:57:46.012Z,62.95
2022-12-04T18:00:14.075Z,60.53
2022-12-04T18:02:42.956Z,57.00
2022-12-04T18:05:10.821Z,55.72
2022-12-04T18:07:38.588Z,53.33
2022-12-04T18:10:06.674Z,63.35
2022-12-04T18:12:34.382Z,50.20
2022-12-04T18:15:01.950Z,60.63
2022-12-04T18:17:29.529Z,57.45
2022-12-04T18:20:02.640Z,53.65
2022-12-04T18:22:31.821Z,67.10
2022-12-04T18:24:59.274Z,55.20
2022-12-04T18:27:27.838Z,67.55
2022-12-04T18:29:55.943Z,50.80
2022-12-04T18:32:23.431Z,58.67
2022-12-04T18:34:50.356Z,50.67
2022-12-04T18:37:18.014Z,51.00
2022-12-04T18:39:45.013Z,40.50
2022-12-04T18:42:12.531Z,44.25
2022-12-04T18:44:40.061Z,43.65
2022-12-04T18:47:08.235Z,45.33
2022-12-04T18:49:35.728Z,43.40
2022-12-04T18:52:03.022Z,42.75
2022-12-04T18:54:30.452Z,42.22
2022-12-04T18:57:00.777Z,45.28
2022-12-04T18:59:29.521Z,38.03
2022-12-04T19:01:58.238Z,37.50
2022-12-04T19:04:26.597Z,41.83
2022-12-04T19:06:57.966Z,42.13
2022-12-04T19:12:16.305Z,49.72
2022-12-04T19:14:44.997Z,45.75
2022-12-04T19:17:12.824Z,40.40
2022-12-04T19:19:40.307Z,40.65
2022-12-04T19:22:11.527Z,46.72
2022-12-04T19:24:39.600Z,45.72
2022-12-04T19:27:13.391Z,36.33
2022-12-04T19:29:43.599Z,36.67
2022-12-04T19:32:12.299Z,33.85
2022-12-04T19:35:01.990Z,36.20
2022-12-04T19:37:29.936Z,41.30
2022-12-04T19:39:58.572Z,34.22
2022-12-04T19:42:26.679Z,36.17
2022-12-04T19:44:58.660Z,46.97
2022-12-04T19:47:26.280Z,43.42
2022-12-04T19:49:53.844Z,49.97
2022-12-04T19:52:23.705Z,33.67
2022-12-04T19:54:51.804Z,36.90
2022-12-04T19:57:19.979Z,37.72
2022-12-04T19:59:47.515Z,35.88
2022-12-04T20:02:16.552Z,32.22
2022-12-04T20:04:44.712Z,32.17
2022-12-04T20:07:12.889Z,33.50
2022-12-04T20:09:40.649Z,36.83
2022-12-04T20:12:08.380Z,31.42
2022-12-04T20:14:36.025Z,29.02
2022-12-04T20:17:05.496Z,36.40
2022-12-04T20:19:33.422Z,32.03
2022-12-04T20:22:04.206Z,33.85
2022-12-04T20:24:32.371Z,31.35
2022-12-04T20:27:00.557Z,35.55
2022-12-04T20:29:28.474Z,27.67
2022-12-04T20:31:56.018Z,33.33
2022-12-04T20:34:24.000Z,35.17
2022-12-04T20:36:51.681Z,26.52
2022-12-04T20:39:20.249Z,27.95
2022-12-04T20:41:47.740Z,31.35
2022-12-04T20:44:17.953Z,31.55
2022-12-04T20:46:45.842Z,33.55
2022-12-04T20:49:20.648Z,33.97
2022-12-04T20:51:50.941Z,32.15
2022-12-04T20:54:21.810Z,34.38
2022-12-04T20:56:50.470Z,37.63
2022-12-04T20:59:19.913Z,38.83
2022-12-04T21:01:49.077Z,33.72
2022-12-04T21:04:18.201Z,33.92
2022-12-04T21:06:47.296Z,31.75
2022-12-04T21:09:25.775Z,31.77
2022-12-04T21:11:55.177Z,26.80
2022-12-04T21:14:47.185Z,34.05
2022-12-04T21:17:18.700Z,28.77
2022-12-04T21:19:47.831Z,29.45
2022-12-04T21:22:16.471Z,30.40
2022-12-04T21:24:44.280Z,32.10
2022-12-04T21:27:15.850Z,31.98
2022-12-04T21:29:48.120Z,29.02
2022-12-04T21:32:18.278Z,29.60
2022-12-04T21:34:45.345Z,27.52
2022-12-04T21:37:12.425Z,26.13
2022-12-04T21:39:40.235Z,24.30
2022-12-04T21:42:25.699Z,24.98
2022-12-04T21:44:52.718Z,22.98
2022-12-04T21:47:20.054Z,25.20
2022-12-04T21:49:47.954Z,23.98
2022-12-04T21:52:19.238Z,16.67
2022-12-04T21:54:53.167Z,17.55
2022-12-04T21:57:21.224Z,13.68
2022-12-04T21:59:48.700Z,14.32
2022-12-04T22:02:16.786Z,12.18
2022-12-04T22:04:43.835Z,8.88
2022-12-04T22:07:11.473Z,11.43
2022-12-04T22:09:39.520Z,11.75
2022-12-04T22:12:20.268Z,13.30
2022-12-04T22:14:54.152Z,9.27
2022-12-04T22:17:27.339Z,10.70
2022-12-04T22:20:03.529Z,12.43
2022-12-04T22:22:30.803Z,10.23
2022-12-04T22:25:01.278Z,10.05
2022-12-04T22:27:28.952Z,8.77
2022-12-04T22:29:56.306Z,8.35
2022-12-04T22:32:23.203Z,9.13
2022-12-04T22:34:50.761Z,8.70
2022-12-04T22:37:18.063Z,8.48
2022-12-04T22:39:45.799Z,7.78
2022-12-04T22:42:13.131Z,7.85
2022-12-04T22:44:40.358Z,8.63
2022-12-04T22:47:07.806Z,8.35
2022-12-04T22:49:35.103Z,7.07
2022-12-04T22:52:02.461Z,10.23
2022-12-04T22:54:29.571Z,7.55
2022-12-04T22:56:56.781Z,11.05
2022-12-04T22:59:23.895Z,7.70
2022-12-04T23:01:50.969Z,7.05
2022-12-04T23:04:17.996Z,7.20
2022-12-04T23:06:45.307Z,6.85
2022-12-04T23:09:15.393Z,6.32
2022-12-04T23:11:43.039Z,7.30
2022-12-04T23:14:13.823Z,10.05
2022-12-04T23:16:41.409Z,8.65
2022-12-04T23:19:10.971Z,8.55
2022-12-04T23:21:38.175Z,6.43
2022-12-04T23:24:06.146Z,7.15
2022-12-04T23:26:36.718Z,6.93
2022-12-04T23:29:17.883Z,6.72
2022-12-04T23:31:51.475Z,5.15
2022-12-04T23:34:18.522Z,4.93
2022-12-04T23:36:45.457Z,7.57
2022-12-04T23:39:12.479Z,5.20
2022-12-04T23:41:39.386Z,6.40
2022-12-04T23:44:06.449Z,6.53
2022-12-04T23:46:34.140Z,6.72
2022-12-04T23:49:01.840Z,9.20
2022-12-04T23:51:29.178Z,10.27
2022-12-04T23:53:56.351Z,8.13
2022-12-04T23:56:25.820Z,6.95
2022-12-04T23:58:54.520Z,7.32
